Impacts TAF Board
For situational awareness. Not to be used for flight planning purposes.
IDs:

KFPR - Ft Pierce/St Lucie I, FL, US

Issued at 2331 UTC 30 Jun 2022
Updated at 2343 UTC 30 Jun 2022
Potential Impact None Slight Moderate High
Time2253Z 01/00Z 01/01Z 01/02Z 01/03Z 01/04Z 01/05Z 01/06Z 01/07Z 01/08Z 01/09Z 01/10Z 01/11Z 01/12Z>>
Type OBS PRVL PRVL PRVL PRVL PRVL PRVL PRVL PRVL PRVL PRVL PRVL PRVL PRVL
VIS 10 >6 >6 >6 >6 >6 >6 >6 >6 >6 >6 >6 >6 >6
CIG -- 120 120 120 120 120 140 140 140 140 140 140 140 140
Cover CLR BKN BKN BKN BKN BKN BKN BKN BKN BKN BKN BKN BKN BKN
FltCat VFR VFR VFR VFR VFR VFR VFR VFR VFR VFR VFR VFR VFR VFR
WX -- VCSH VCSH VCSH VCSH VCSH -- -- -- -- -- -- -- --
WDir 140 140 140 140 140 140 160 160 160 160 160 160 160 160
WSpd 12 6 6 6 6 6 4 4 4 4 4 4 4 4
WGst -- -- -- -- -- -- -- -- -- -- -- -- -- --
WSHgt -- -- -- -- -- -- -- -- -- -- -- -- -- --
WSDir -- -- -- -- -- -- -- -- -- -- -- -- -- --
WSSpd -- -- -- -- -- -- -- -- -- -- -- -- -- --
Raw TAF
KFPR 302331Z 0100/0124 14006KT P6SM VCSH FEW030 SCT060 BKN120
  FM010500 16004KT P6SM SCT080 BKN140
  FM011400 16006KT P6SM SCT035 SCT080 BKN200
  FM011700 13012KT P6SM VCTS SCT035CB SCT060 BKN250


Raw METAR
KFPR 302253Z 14012KT 10SM CLR 29/23 A3009 RMK AO2 LTG DSNT S SLP189 T02940233
KFPR 302153Z 14012KT 10SM CLR 29/24 A3007 RMK AO2 LTG DSNT S SLP183 T02940244
KFPR 302053Z 13012KT 10SM CLR 29/24 A3008 RMK AO2 SLP185 60000 T02940244 57014

METAR Board
Radar Display
Forecast Discussion
For situational awareness. Not to be used for flight planning purposes.